Time;durP1;ratioP1;P1;durP2;ratioP2;P2;SDS_P1;SDS_P2;PMS_P1;PMS_P2;Temp;Humidity;BMP_temperature;BMP_pressure;BME280_temperature;BME280_humidity;BME280_pressure;Samples;Min_cycle;Max_cycle;Signal;HPM_P1;HPM_P2
2022/10/27 00:02:12;;;;;;;12.75;3.75;;;15.60;77.60;;;;;;5013567;28;20027;-81
2022/10/27 00:04:39;;;;;;;10.65;3.20;;;15.60;77.60;;;;;;4992338;28;20107;-82
2022/10/27 00:07:05;;;;;;;14.48;3.17;;;15.60;77.70;;;;;;4998476;28;20102;-83
2022/10/27 00:09:31;;;;;;;14.63;4.22;;;15.60;77.70;;;;;;4986709;28;20062;-84
2022/10/27 00:11:57;;;;;;;13.30;4.50;;;15.50;77.60;;;;;;5003521;28;20079;-85
2022/10/27 00:14:23;;;;;;;20.05;4.65;;;15.50;77.60;;;;;;5002068;28;20042;-82
2022/10/27 00:16:54;;;;;;;12.48;3.47;;;15.50;77.60;;;;;;4999122;28;20125;-84
2022/10/27 00:19:21;;;;;;;13.10;3.80;;;15.50;77.70;;;;;;5015659;28;20045;-82
2022/10/27 00:21:47;;;;;;;13.43;3.55;;;15.50;77.70;;;;;;4986500;28;20023;-81
2022/10/27 00:24:14;;;;;;;18.00;3.78;;;15.50;77.70;;;;;;5000807;28;20037;-81
2022/10/27 00:26:39;;;;;;;12.63;3.22;;;15.50;77.70;;;;;;4991681;28;20539;-80
2022/10/27 00:29:05;;;;;;;15.32;3.00;;;15.50;77.80;;;;;;4998396;28;20050;-82
2022/10/27 00:31:31;;;;;;;14.05;3.05;;;15.50;77.80;;;;;;4997751;28;20022;-80
2022/10/27 00:33:57;;;;;;;10.98;3.30;;;15.50;77.80;;;;;;4992330;28;20041;-80
2022/10/27 00:36:24;;;;;;;14.13;3.63;;;15.50;77.80;;;;;;5009215;28;20501;-80
2022/10/27 00:38:53;;;;;;;12.85;3.35;;;15.50;77.80;;;;;;4995252;28;20041;-81
2022/10/27 00:41:33;;;;;;;9.85;3.40;;;15.60;78.00;;;;;;4989926;28;20536;-80
2022/10/27 00:44:02;;;;;;;17.13;3.92;;;15.60;77.90;;;;;;4983182;28;20102;-81
2022/10/27 00:46:34;;;;;;;13.65;3.45;;;15.60;77.90;;;;;;4993650;28;20522;-80
2022/10/27 00:49:27;;;;;;;15.88;4.72;;;15.60;77.90;;;;;;4993675;28;20099;-83
2022/10/27 00:52:01;;;;;;;20.20;4.03;;;15.60;77.90;;;;;;4995832;28;20221;-80
2022/10/27 00:54:31;;;;;;;16.88;5.30;;;15.60;77.90;;;;;;5000266;28;20057;-82
2022/10/27 00:56:58;;;;;;;14.80;3.78;;;15.50;77.70;;;;;;5003472;28;20102;-82
2022/10/27 00:59:25;;;;;;;14.38;3.88;;;15.50;77.70;;;;;;5008854;28;20133;-81
2022/10/27 01:01:52;;;;;;;14.02;3.58;;;15.50;77.70;;;;;;4997434;28;20130;-82
2022/10/27 01:04:47;;;;;;;15.98;3.72;;;15.50;77.70;;;;;;4997135;28;20109;-80
2022/10/27 01:07:15;;;;;;;12.20;3.42;;;15.60;78.00;;;;;;4990567;28;20536;-82
2022/10/27 01:09:42;;;;;;;15.82;3.90;;;15.50;77.70;;;;;;5007866;28;20110;-81
2022/10/27 01:12:08;;;;;;;11.20;3.38;;;15.50;77.70;;;;;;4984943;28;20569;-81
2022/10/27 01:14:35;;;;;;;13.20;3.55;;;15.50;77.80;;;;;;4978002;28;20377;-82
2022/10/27 01:17:22;;;;;;;8.82;3.05;;;15.50;77.80;;;;;;5021431;28;20393;-81
2022/10/27 01:20:08;;;;;;;13.75;4.53;;;15.60;78.00;;;;;;4993660;28;20046;-81
2022/10/27 01:22:34;;;;;;;15.25;4.35;;;15.60;78.00;;;;;;4987647;28;20082;-81
2022/10/27 01:25:18;;;;;;;15.88;3.47;;;15.60;77.90;;;;;;5012511;28;20056;-81
2022/10/27 01:27:51;;;;;;;12.15;3.40;;;15.60;78.40;;;;;;4995847;28;20129;-82
2022/10/27 01:30:19;;;;;;;;;;;15.60;77.80;;;;;;5001825;28;20109;-81
2022/10/27 01:33:07;;;;;;;9.98;2.75;;;15.60;77.80;;;;;;5005842;28;19985;-81
2022/10/27 01:35:58;;;;;;;11.25;2.83;;;15.60;77.60;;;;;;5009113;28;20098;-81
2022/10/27 01:38:44;;;;;;;15.60;4.68;;;15.70;77.80;;;;;;4999624;28;20127;-82
2022/10/27 01:41:19;;;;;;;13.40;3.17;;;15.70;77.80;;;;;;5016869;28;20141;-84
2022/10/27 01:43:48;;;;;;;12.68;5.28;;;15.70;77.80;;;;;;5017223;28;20134;-81
2022/10/27 01:46:15;;;;;;;10.38;2.72;;;15.70;77.80;;;;;;5008318;28;20147;-82
2022/10/27 01:48:41;;;;;;;10.20;2.72;;;15.70;77.80;;;;;;5026678;28;20110;-82
2022/10/27 01:51:07;;;;;;;10.40;3.17;;;15.70;77.80;;;;;;4990747;28;20086;-85
2022/10/27 01:53:44;;;;;;;15.23;4.45;;;15.70;78.30;;;;;;4990998;28;20033;-82
2022/10/27 01:56:40;;;;;;;11.30;3.08;;;15.70;77.80;;;;;;4992083;28;20478;-82
2022/10/27 01:59:26;;;;;;;9.73;2.58;;;15.70;77.90;;;;;;5001178;28;20539;-81
2022/10/27 02:02:00;;;;;;;8.68;2.25;;;15.80;78.10;;;;;;4986378;28;20046;-82
2022/10/27 02:04:40;;;;;;;8.23;2.42;;;15.80;78.00;;;;;;4992098;28;20053;-82
2022/10/27 02:07:17;;;;;;;10.57;3.25;;;15.80;78.00;;;;;;4979753;28;20496;-82
2022/10/27 02:09:53;;;;;;;8.02;2.25;;;15.80;78.00;;;;;;5011073;28;20031;-82
2022/10/27 02:12:30;;;;;;;11.95;2.53;;;15.80;78.00;;;;;;5014537;28;20044;-83
2022/10/27 02:14:59;;;;;;;6.70;2.33;;;15.80;77.90;;;;;;5005867;28;20389;-84
2022/10/27 02:17:31;;;;;;;12.25;3.55;;;15.80;77.90;;;;;;4986039;28;20027;-83
2022/10/27 02:20:00;;;;;;;9.05;3.17;;;15.90;78.10;;;;;;5015216;28;20038;-83
2022/10/27 02:22:29;;;;;;;9.50;2.72;;;15.90;78.00;;;;;;5002237;28;20035;-82
2022/10/27 02:24:56;;;;;;;10.52;2.45;;;15.90;78.00;;;;;;4996536;28;20038;-81
2022/10/27 02:27:35;;;;;;;8.27;2.33;;;15.90;78.00;;;;;;4995373;28;20041;-82
2022/10/27 02:30:02;;;;;;;10.40;2.58;;;15.90;78.10;;;;;;4990590;28;20026;-81
2022/10/27 02:32:29;;;;;;;11.70;3.58;;;16.00;78.20;;;;;;5000466;28;20030;-83
2022/10/27 02:34:56;;;;;;;10.90;2.92;;;16.00;78.20;;;;;;4996330;28;20034;-83
2022/10/27 02:37:30;;;;;;;7.03;2.20;;;16.00;78.20;;;;;;5015570;28;20026;-82
2022/10/27 02:39:58;;;;;;;5.75;2.05;;;16.00;78.20;;;;;;5014054;28;20076;-80
2022/10/27 02:42:26;;;;;;;7.82;2.28;;;16.00;78.10;;;;;;4979753;28;20037;-82
2022/10/27 02:44:52;;;;;;;9.70;2.45;;;16.00;78.10;;;;;;5001162;28;20079;-81
2022/10/27 02:47:17;;;;;;;8.88;2.22;;;16.00;78.10;;;;;;4996188;28;20026;-81
2022/10/27 02:49:44;;;;;;;10.52;2.65;;;16.10;78.20;;;;;;4991371;28;20057;-82
2022/10/27 02:52:10;;;;;;;8.43;3.08;;;16.00;78.10;;;;;;4998695;28;20018;-81
2022/10/27 02:54:36;;;;;;;4.93;1.90;;;16.00;78.00;;;;;;4992578;28;20057;-83
2022/10/27 02:57:02;;;;;;;8.10;1.98;;;16.10;78.20;;;;;;4995368;28;20033;-84
2022/10/27 02:59:28;;;;;;;9.55;2.30;;;16.10;78.20;;;;;;5001893;28;20050;-84
2022/10/27 03:01:54;;;;;;;6.88;2.28;;;16.10;78.20;;;;;;4999798;28;20098;-83
2022/10/27 03:04:23;;;;;;;7.13;1.60;;;16.10;78.20;;;;;;4996961;28;20508;-83
2022/10/27 03:06:51;;;;;;;10.05;2.03;;;16.10;78.20;;;;;;5000533;28;20036;-84
2022/10/27 03:09:19;;;;;;;8.30;2.10;;;16.10;78.30;;;;;;5017607;28;20033;-84
2022/10/27 03:11:44;;;;;;;9.88;3.25;;;16.10;78.20;;;;;;5023840;28;20034;-83
2022/10/27 03:14:11;;;;;;;6.53;1.65;;;16.10;78.20;;;;;;4997372;28;20038;-83
2022/10/27 03:16:37;;;;;;;6.38;2.10;;;16.10;78.20;;;;;;4969003;28;20124;-83
2022/10/27 03:19:03;;;;;;;7.85;1.83;;;16.10;78.20;;;;;;5014544;28;20121;-84
2022/10/27 03:21:29;;;;;;;8.10;2.35;;;16.20;78.30;;;;;;5000568;28;20026;-84
2022/10/27 03:23:55;;;;;;;5.65;1.70;;;16.20;78.90;;;;;;4996050;28;20035;-82
2022/10/27 03:26:21;;;;;;;6.50;1.70;;;16.20;78.30;;;;;;5002307;28;20041;-82
2022/10/27 03:28:48;;;;;;;10.77;2.65;;;16.20;78.30;;;;;;5012873;28;20041;-83
2022/10/27 03:31:13;;;;;;;9.73;2.22;;;16.20;78.40;;;;;;4995719;28;20041;-84
2022/10/27 03:33:39;;;;;;;6.78;2.30;;;16.20;78.30;;;;;;4996317;28;20038;-84
2022/10/27 03:36:06;;;;;;;5.43;1.83;;;16.20;78.40;;;;;;5005957;28;20038;-82
2022/10/27 03:38:32;;;;;;;7.05;2.33;;;16.20;78.40;;;;;;4995231;28;20055;-82
2022/10/27 03:40:58;;;;;;;7.35;1.75;;;16.20;78.40;;;;;;5025287;28;20038;-82
2022/10/27 03:43:24;;;;;;;5.22;1.50;;;16.20;78.40;;;;;;5013330;28;20537;-82
2022/10/27 03:45:50;;;;;;;9.93;2.80;;;16.20;78.50;;;;;;4997324;28;20033;-81
2022/10/27 03:48:16;;;;;;;8.93;2.50;;;16.20;78.50;;;;;;5014036;28;20302;-82
2022/10/27 03:50:51;;;;;;;4.43;1.88;;;16.20;78.50;;;;;;5009494;28;20482;-82
2022/10/27 03:53:18;;;;;;;8.32;1.77;;;16.20;78.60;;;;;;5010787;28;20050;-81
2022/10/27 03:55:43;;;;;;;3.85;1.27;;;16.30;78.80;;;;;;5010158;28;20053;-84
2022/10/27 03:58:15;;;;;;;7.47;2.53;;;16.30;78.80;;;;;;5002994;28;20026;-85
2022/10/27 04:00:42;;;;;;;8.65;1.90;;;16.20;78.70;;;;;;5001108;28;20098;-83
2022/10/27 04:03:09;;;;;;;4.28;1.13;;;16.20;78.70;;;;;;5014983;28;20066;-85
2022/10/27 04:05:35;;;;;;;5.47;1.90;;;16.20;78.70;;;;;;5015541;28;20027;-83
2022/10/27 04:08:01;;;;;;;3.95;1.40;;;16.20;78.80;;;;;;5018533;28;20065;-88
2022/10/27 04:10:27;;;;;;;3.95;1.75;;;16.20;78.90;;;;;;5004341;28;20073;-89
2022/10/27 04:12:55;;;;;;;4.32;1.55;;;16.20;78.90;;;;;;5009203;28;20037;-85
2022/10/27 04:15:25;;;;;;;5.80;1.48;;;16.20;78.90;;;;;;5003910;28;20014;-86
2022/10/27 04:17:54;;;;;;;5.30;2.00;;;16.20;79.50;;;;;;4999536;28;20029;-86
2022/10/27 04:20:20;;;;;;;3.28;2.17;;;16.20;79.00;;;;;;5007375;28;20452;-86
2022/10/27 04:22:46;;;;;;;4.60;1.27;;;16.20;79.00;;;;;;5004169;28;20037;-86
2022/10/27 04:25:12;;;;;;;2.33;0.95;;;16.20;79.00;;;;;;5006547;28;20102;-87
2022/10/27 04:27:38;;;;;;;4.05;1.55;;;16.20;79.10;;;;;;5008669;28;20061;-86
2022/10/27 04:30:04;;;;;;;3.17;1.55;;;16.20;79.10;;;;;;5006200;28;20034;-86
2022/10/27 04:32:30;;;;;;;3.67;0.90;;;16.20;79.10;;;;;;4999076;28;20038;-85
2022/10/27 04:34:57;;;;;;;6.47;1.65;;;16.20;79.10;;;;;;5004592;28;20030;-88
2022/10/27 04:37:23;;;;;;;3.50;1.10;;;16.20;79.20;;;;;;5011204;28;20021;-87
2022/10/27 04:39:49;;;;;;;3.25;1.40;;;16.20;79.20;;;;;;4986992;28;20042;-91
2022/10/27 04:42:17;;;;;;;6.30;1.95;;;16.20;79.20;;;;;;5006926;28;20038;-88
2022/10/27 04:44:43;;;;;;;3.33;1.50;;;16.20;79.20;;;;;;5002094;28;20030;-84
2022/10/27 04:47:09;;;;;;;3.38;1.13;;;16.30;79.50;;;;;;5012242;28;20286;-84
2022/10/27 04:49:35;;;;;;;2.85;1.13;;;16.30;79.50;;;;;;5017299;28;20108;-85
2022/10/27 04:52:02;;;;;;;5.07;1.48;;;16.20;79.30;;;;;;5000296;28;20038;-86
2022/10/27 04:54:28;;;;;;;3.63;1.55;;;16.30;79.50;;;;;;5002373;28;20550;-85
2022/10/27 04:56:54;;;;;;;4.55;1.13;;;16.30;79.50;;;;;;5004261;28;20030;-86
2022/10/27 04:59:20;;;;;;;5.70;1.90;;;16.30;79.50;;;;;;5009580;28;20390;-85
2022/10/27 05:01:45;;;;;;;3.67;1.52;;;16.30;79.60;;;;;;5000250;28;20575;-87
2022/10/27 05:04:13;;;;;;;3.17;0.88;;;16.30;79.60;;;;;;5000343;28;20030;-84
2022/10/27 05:06:38;;;;;;;2.08;1.02;;;16.30;79.60;;;;;;5002736;28;20424;-84
2022/10/27 05:09:06;;;;;;;2.88;1.00;;;16.30;79.70;;;;;;5002717;28;21029;-85
2022/10/27 05:11:32;;;;;;;2.97;1.02;;;16.30;79.70;;;;;;4997710;28;20428;-85
2022/10/27 05:13:58;;;;;;;4.68;1.13;;;16.30;79.80;;;;;;5000740;28;20038;-84
2022/10/27 05:16:24;;;;;;;3.97;1.25;;;16.30;79.80;;;;;;4992746;28;20089;-85
2022/10/27 05:18:50;;;;;;;4.10;1.13;;;16.30;79.80;;;;;;4997276;28;20030;-86
2022/10/27 05:21:16;;;;;;;3.10;1.08;;;16.30;79.90;;;;;;4998542;28;20030;-86
2022/10/27 05:23:42;;;;;;;5.03;1.65;;;16.30;79.90;;;;;;4994265;28;20045;-87
2022/10/27 05:26:09;;;;;;;2.65;1.50;;;16.30;79.90;;;;;;5005486;28;20038;-90
2022/10/27 05:28:36;;;;;;;4.28;1.35;;;16.30;80.00;;;;;;5002048;28;20089;-87
2022/10/27 05:31:03;;;;;;;4.47;1.30;;;16.30;80.00;;;;;;4999159;28;20101;-86
2022/10/27 05:33:29;;;;;;;5.53;1.27;;;16.30;80.00;;;;;;5011441;28;20121;-89
2022/10/27 05:35:56;;;;;;;5.18;1.38;;;16.30;80.10;;;;;;4999040;28;20034;-92
2022/10/27 05:38:23;;;;;;;5.18;1.63;;;16.30;80.10;;;;;;5024773;28;20085;-90
2022/10/27 05:40:54;;;;;;;6.32;1.40;;;16.30;80.10;;;;;;5009098;28;20040;-90
2022/10/27 05:43:20;;;;;;;6.00;2.17;;;16.30;80.30;;;;;;5010475;28;20513;-85
2022/10/27 05:45:46;;;;;;;5.43;1.73;;;16.30;80.60;;;;;;5011100;28;20038;-90
2022/10/27 05:48:12;;;;;;;9.23;1.83;;;16.30;80.70;;;;;;5012727;28;20041;-86
2022/10/27 05:50:38;;;;;;;6.68;1.83;;;16.30;80.70;;;;;;5040323;28;20041;-87
2022/10/27 05:53:04;;;;;;;4.05;1.35;;;16.30;80.80;;;;;;5039291;28;20022;-87
2022/10/27 05:55:29;;;;;;;9.90;1.92;;;16.40;81.00;;;;;;4999951;28;20038;-89
2022/10/27 05:58:01;;;;;;;8.35;2.05;;;16.30;80.90;;;;;;5005171;28;20049;-91
2022/10/27 06:00:35;;;;;;;5.18;1.80;;;16.30;81.00;;;;;;5010391;28;20046;-90
2022/10/27 06:03:03;;;;;;;10.02;2.03;;;16.30;81.00;;;;;;4997274;28;20038;-89
2022/10/27 06:05:30;;;;;;;9.70;2.60;;;16.30;81.00;;;;;;4993572;28;20045;-91
2022/10/27 06:07:57;;;;;;;9.02;2.42;;;16.30;81.10;;;;;;5006517;28;20038;-81
2022/10/27 06:10:24;;;;;;;6.25;2.33;;;16.30;81.10;;;;;;5004996;28;20018;-82
2022/10/27 06:13:00;;;;;;;6.13;1.90;;;16.20;81.00;;;;;;5008319;28;20022;-81
2022/10/27 06:15:29;;;;;;;6.80;2.83;;;16.20;81.10;;;;;;4993217;28;20035;-88
2022/10/27 06:17:54;;;;;;;10.13;3.05;;;16.20;81.10;;;;;;4995452;28;20518;-87
2022/10/27 06:20:24;;;;;;;5.22;2.20;;;16.20;81.10;;;;;;4992502;28;20064;-84
2022/10/27 06:22:50;;;;;;;8.60;2.63;;;16.20;81.20;;;;;;4991324;28;20069;-88
2022/10/27 06:25:17;;;;;;;10.80;3.28;;;16.20;81.20;;;;;;4988946;28;20053;-88
2022/10/27 06:27:43;;;;;;;4.22;1.73;;;16.20;81.30;;;;;;4992673;28;20475;-88
2022/10/27 06:30:10;;;;;;;7.72;2.53;;;16.20;81.40;;;;;;4997450;28;20034;-89
2022/10/27 06:32:38;;;;;;;4.78;2.25;;;16.20;81.40;;;;;;4988748;28;20023;-88
2022/10/27 06:35:04;;;;;;;7.32;2.47;;;16.30;81.70;;;;;;4986234;28;20036;-90
2022/10/27 06:37:30;;;;;;;6.15;2.75;;;16.20;81.70;;;;;;4991635;28;20021;-88
2022/10/27 06:39:56;;;;;;;6.97;2.45;;;16.20;81.80;;;;;;5001854;28;20049;-84
2022/10/27 06:42:23;;;;;;;6.18;2.67;;;16.30;82.10;;;;;;4985709;28;20102;-84
2022/10/27 06:44:51;;;;;;;10.52;2.30;;;16.30;82.20;;;;;;4991805;28;20030;-88
2022/10/27 06:47:17;;;;;;;6.35;3.38;;;16.40;82.40;;;;;;4993588;28;20061;-86
2022/10/27 06:49:43;;;;;;;5.68;2.50;;;16.40;82.50;;;;;;4998328;28;20054;-88
2022/10/27 06:52:10;;;;;;;4.38;2.70;;;16.40;82.50;;;;;;5005299;28;20030;-86
2022/10/27 06:54:37;;;;;;;9.95;3.50;;;16.40;82.50;;;;;;5004968;28;20095;-88
2022/10/27 06:57:03;;;;;;;9.18;3.33;;;16.40;82.60;;;;;;5002952;28;20581;-85
2022/10/27 06:59:30;;;;;;;7.22;3.50;;;16.40;82.60;;;;;;4998411;28;20049;-87
2022/10/27 07:01:56;;;;;;;6.38;3.97;;;16.40;82.60;;;;;;4997415;28;20030;-87
2022/10/27 07:04:21;;;;;;;8.63;3.22;;;16.40;82.60;;;;;;5000573;28;20030;-85
2022/10/27 07:06:47;;;;;;;5.63;3.90;;;16.30;82.50;;;;;;5000389;28;20026;-87
2022/10/27 07:09:13;;;;;;;5.53;2.80;;;16.40;82.70;;;;;;5005932;28;20027;-85
2022/10/27 07:11:39;;;;;;;5.78;2.95;;;16.40;82.70;;;;;;4996386;28;20035;-86
2022/10/27 07:14:06;;;;;;;7.22;3.65;;;16.40;82.80;;;;;;5002411;28;20036;-86
2022/10/27 07:16:33;;;;;;;5.70;2.80;;;16.40;82.80;;;;;;5007497;28;20029;-85
2022/10/27 07:18:59;;;;;;;10.20;4.28;;;16.40;82.80;;;;;;4988395;28;20046;-85
2022/10/27 07:21:26;;;;;;;8.95;4.65;;;16.30;82.70;;;;;;4992106;28;20030;-85
2022/10/27 07:23:51;;;;;;;9.05;3.63;;;16.40;82.90;;;;;;5012749;28;20460;-86
2022/10/27 07:26:19;;;;;;;7.13;3.50;;;16.40;82.90;;;;;;4992384;28;20092;-85
2022/10/27 07:28:46;;;;;;;8.63;4.03;;;16.40;82.90;;;;;;5016149;28;20052;-82
2022/10/27 07:31:13;;;;;;;6.15;4.43;;;16.40;82.90;;;;;;5009328;28;20034;-86
2022/10/27 07:33:39;;;;;;;4.97;2.97;;;16.40;82.90;;;;;;5005156;28;20037;-81
2022/10/27 07:36:06;;;;;;;9.15;3.50;;;16.40;82.90;;;;;;4991189;28;20052;-85
2022/10/27 07:38:32;;;;;;;7.10;3.97;;;16.40;82.90;;;;;;4998639;28;20303;-84
2022/10/27 07:40:58;;;;;;;6.45;3.58;;;16.40;83.00;;;;;;5022839;28;20034;-84
2022/10/27 07:43:24;;;;;;;7.60;3.78;;;16.40;83.00;;;;;;4997410;28;20456;-83
2022/10/27 07:45:50;;;;;;;8.30;4.47;;;16.40;83.00;;;;;;4990474;28;20014;-82
2022/10/27 07:48:16;;;;;;;6.68;4.68;;;16.50;83.10;;;;;;4995905;28;20045;-83
2022/10/27 07:50:43;;;;;;;8.23;3.80;;;16.40;82.90;;;;;;4989913;28;20065;-81
2022/10/27 07:53:10;;;;;;;6.93;4.65;;;16.50;83.10;;;;;;4990581;28;20049;-83
2022/10/27 07:55:37;;;;;;;7.72;3.50;;;16.50;83.00;;;;;;4989882;28;20026;-84
2022/10/27 07:58:14;;;;;;;6.18;3.88;;;16.50;83.00;;;;;;4990604;28;20037;-84
2022/10/27 08:00:46;;;;;;;9.00;4.30;;;16.50;83.10;;;;;;5000835;28;20042;-82
2022/10/27 08:03:18;;;;;;;6.88;3.80;;;16.50;83.00;;;;;;4990976;28;20457;-81
2022/10/27 08:05:45;;;;;;;4.80;3.47;;;16.60;83.20;;;;;;4985998;28;20023;-85
2022/10/27 08:08:13;;;;;;;5.55;3.95;;;16.60;83.10;;;;;;4980845;28;20034;-81
2022/10/27 08:10:40;;;;;;;10.27;4.78;;;16.60;83.60;;;;;;4992171;28;20061;-82
2022/10/27 08:13:08;;;;;;;7.32;5.13;;;16.60;83.10;;;;;;4990222;28;20038;-81
2022/10/27 08:15:34;;;;;;;6.63;4.35;;;16.70;83.30;;;;;;5002137;28;20029;-82
2022/10/27 08:18:03;;;;;;;8.60;4.07;;;16.70;83.30;;;;;;4992274;28;20026;-82
2022/10/27 08:20:31;;;;;;;9.48;4.65;;;16.70;83.20;;;;;;4988867;28;20351;-83
2022/10/27 08:22:58;;;;;;;8.32;4.82;;;16.70;83.30;;;;;;4982196;28;20023;-88
2022/10/27 08:25:30;;;;;;;5.82;3.47;;;16.80;83.40;;;;;;4991126;28;20042;-85
2022/10/27 08:27:59;;;;;;;11.23;4.15;;;16.90;83.70;;;;;;5009369;28;20045;-83
2022/10/27 08:30:27;;;;;;;7.75;4.45;;;16.90;83.60;;;;;;4993534;28;20037;-84
2022/10/27 08:32:57;;;;;;;5.22;3.70;;;17.00;83.70;;;;;;4989553;28;20289;-85
2022/10/27 08:35:24;;;;;;;5.32;3.72;;;17.00;84.10;;;;;;4991316;28;20042;-82
2022/10/27 08:38:05;;;;;;;5.82;3.88;;;17.10;83.70;;;;;;4991536;28;20028;-82
2022/10/27 08:40:38;;;;;;;7.43;3.50;;;17.20;83.90;;;;;;4992649;28;20042;-82
2022/10/27 08:43:20;;;;;;;6.70;3.13;;;17.20;83.70;;;;;;4989310;28;20034;-81
2022/10/27 08:46:07;;;;;;;6.80;2.97;;;17.30;83.80;;;;;;4977057;28;20502;-85
2022/10/27 08:48:35;;;;;;;7.60;3.42;;;17.40;83.80;;;;;;4985702;28;20058;-84
2022/10/27 08:51:02;;;;;;;7.00;3.65;;;17.50;83.90;;;;;;5005788;28;20401;-85
2022/10/27 08:53:32;;;;;;;6.22;3.53;;;17.70;84.10;;;;;;5019985;28;21181;-86
2022/10/27 08:56:07;;;;;;;4.47;2.90;;;17.70;84.10;;;;;;5001154;28;20046;-86
2022/10/27 08:58:42;;;;;;;5.00;3.00;;;17.80;84.40;;;;;;4994651;28;20022;-86
2022/10/27 09:01:26;;;;;;;3.83;2.75;;;17.90;84.60;;;;;;5000115;28;20044;-87
2022/10/27 09:04:06;;;;;;;3.55;2.45;;;18.00;84.70;;;;;;4990585;28;20177;-86
2022/10/27 09:06:50;;;;;;;5.88;2.95;;;18.10;84.70;;;;;;5008274;28;20121;-88
2022/10/27 09:09:21;;;;;;;7.38;2.67;;;18.20;84.80;;;;;;4991907;28;20030;-86
2022/10/27 09:12:14;;;;;;;6.28;3.40;;;18.30;84.70;;;;;;4992453;28;20408;-86
2022/10/27 09:14:47;;;;;;;8.18;2.47;;;18.40;84.90;;;;;;4991373;28;20053;-85
2022/10/27 09:17:19;;;;;;;;;;;18.40;84.80;;;;;;4992645;28;20129;-84
2022/10/27 09:20:12;;;;;;;5.53;2.17;;;18.40;84.60;;;;;;4990230;28;19925;-85
2022/10/27 09:22:41;;;;;;;3.50;2.15;;;18.50;84.60;;;;;;4992499;28;20031;-85
2022/10/27 09:25:19;;;;;;;6.90;2.20;;;18.50;84.50;;;;;;4997882;28;20034;-87
2022/10/27 09:27:50;;;;;;;3.30;2.20;;;18.50;84.60;;;;;;4980036;28;20034;-88
2022/10/27 09:30:17;;;;;;;4.95;2.47;;;18.60;84.70;;;;;;5005329;28;20389;-85
2022/10/27 09:32:47;;;;;;;5.50;2.20;;;18.60;84.60;;;;;;4990137;28;20042;-88
2022/10/27 09:35:24;;;;;;;7.45;2.50;;;18.70;84.60;;;;;;4998224;28;20033;-83
2022/10/27 09:37:51;;;;;;;3.63;2.40;;;18.80;84.70;;;;;;4986266;28;20389;-82
2022/10/27 09:40:20;;;;;;;2.55;1.77;;;18.90;84.70;;;;;;4995551;28;20054;-84
2022/10/27 09:42:52;;;;;;;7.97;2.55;;;18.90;84.40;;;;;;4997444;28;20022;-85
2022/10/27 09:45:21;;;;;;;12.88;2.85;;;19.10;84.40;;;;;;4997809;28;20050;-86
2022/10/27 09:47:55;;;;;;;4.80;2.47;;;19.20;84.20;;;;;;4991120;28;20052;-87
2022/10/27 09:50:35;;;;;;;4.95;2.10;;;19.30;84.10;;;;;;4997097;28;20068;-86
2022/10/27 09:53:02;;;;;;;4.60;2.78;;;19.40;83.80;;;;;;4996251;28;20088;-88
2022/10/27 09:55:53;;;;;;;7.60;2.58;;;19.60;83.80;;;;;;4997182;28;20030;-86
2022/10/27 09:58:20;;;;;;;4.50;1.95;;;19.70;83.60;;;;;;4996865;28;20146;-86
2022/10/27 10:01:00;;;;;;;3.53;1.75;;;19.70;83.40;;;;;;5005435;28;20061;-85
2022/10/27 10:03:26;;;;;;;4.18;1.50;;;19.80;83.30;;;;;;4996157;28;20038;-87
2022/10/27 10:06:01;;;;;;;4.35;2.13;;;19.80;83.10;;;;;;4995251;28;20022;-85
2022/10/27 10:08:32;;;;;;;5.60;2.17;;;19.90;83.10;;;;;;4997263;28;20073;-87
2022/10/27 10:11:02;;;;;;;6.45;1.92;;;20.00;83.60;;;;;;4995314;28;20392;-86
2022/10/27 10:13:36;;;;;;;7.43;2.63;;;20.10;82.90;;;;;;4996943;28;20038;-85
2022/10/27 10:16:10;;;;;;;4.75;1.98;;;20.20;82.70;;;;;;5002363;28;20289;-84
2022/10/27 10:18:57;;;;;;;4.18;1.88;;;20.40;82.60;;;;;;4996416;28;20034;-84
2022/10/27 10:21:23;;;;;;;4.03;1.88;;;20.50;82.50;;;;;;5000271;28;20038;-85
2022/10/27 10:23:51;;;;;;;4.60;1.75;;;20.60;82.10;;;;;;4986584;28;20035;-86
2022/10/27 10:26:28;;;;;;;3.97;1.65;;;20.70;81.90;;;;;;5013516;28;20030;-85
2022/10/27 10:29:07;;;;;;;3.47;1.90;;;20.80;81.80;;;;;;5002327;28;20157;-84
2022/10/27 10:31:35;;;;;;;4.97;1.80;;;20.90;81.70;;;;;;4990447;28;20034;-85
2022/10/27 10:34:03;;;;;;;4.60;1.90;;;21.00;81.50;;;;;;4989719;28;20113;-87
2022/10/27 10:36:38;;;;;;;4.07;1.48;;;21.20;81.50;;;;;;4991858;28;20637;-87
2022/10/27 10:39:25;;;;;;;4.57;1.83;;;21.20;81.00;;;;;;4980934;28;20042;-88
2022/10/27 10:42:18;;;;;;;4.47;1.73;;;21.30;80.80;;;;;;4966106;28;20027;-90
2022/10/27 10:44:44;;;;;;;5.05;2.42;;;21.40;80.70;;;;;;4986662;28;20375;-83
2022/10/27 10:47:23;;;;;;;3.15;1.73;;;21.40;80.70;;;;;;5016175;28;20133;-87
2022/10/27 10:49:54;;;;;;;5.35;1.85;;;21.60;80.60;;;;;;5026984;28;20037;-90
2022/10/27 10:52:37;;;;;;;6.05;2.05;;;21.80;80.40;;;;;;5003435;28;20406;-90
2022/10/27 10:55:07;;;;;;;4.82;2.30;;;22.00;80.20;;;;;;4998049;28;20497;-88
2022/10/27 10:57:44;;;;;;;2.88;1.50;;;22.10;80.00;;;;;;4998879;28;20046;-88
2022/10/27 11:00:19;;;;;;;3.67;1.35;;;22.30;80.00;;;;;;5008110;28;20038;-87
2022/10/27 11:02:56;;;;;;;6.88;1.85;;;22.40;79.70;;;;;;4994142;28;20041;-86
2022/10/27 11:05:26;;;;;;;6.45;1.92;;;22.50;79.60;;;;;;4989322;28;20038;-83
2022/10/27 11:07:53;;;;;;;5.38;2.28;;;22.60;79.40;;;;;;4986833;28;20361;-83
2022/10/27 11:10:27;;;;;;;5.00;2.15;;;22.80;79.40;;;;;;4978805;28;20031;-83
2022/10/27 11:13:05;;;;;;;6.15;2.47;;;22.90;79.50;;;;;;4992862;28;20022;-82
2022/10/27 11:15:43;;;;;;;4.28;1.80;;;23.10;78.90;;;;;;5001179;28;20038;-80
2022/10/27 11:18:40;;;;;;;4.13;1.75;;;23.30;78.80;;;;;;5009859;28;20037;-81
2022/10/27 11:21:30;;;;;;;2.17;1.40;;;23.40;78.60;;;;;;5005130;28;20064;-80
2022/10/27 11:24:19;;;;;;;5.57;1.85;;;23.60;78.20;;;;;;4984303;28;20056;-85
2022/10/27 11:26:58;;;;;;;7.07;2.20;;;23.80;78.10;;;;;;4996100;28;20534;-83
2022/10/27 11:29:41;;;;;;;3.80;1.77;;;24.00;78.00;;;;;;5002364;28;20125;-83
2022/10/27 11:32:16;;;;;;;4.80;1.50;;;24.20;77.70;;;;;;4999349;28;20038;-82
2022/10/27 11:35:08;;;;;;;5.25;1.73;;;24.40;77.70;;;;;;4995248;28;20034;-92
2022/10/27 11:37:57;;;;;;;3.55;1.42;;;24.50;77.30;;;;;;4986810;28;20038;-93
2022/10/27 11:40:30;;;;;;;5.18;1.42;;;24.70;77.00;;;;;;5000434;28;20058;-90
2022/10/27 11:43:05;;;;;;;5.20;1.38;;;24.70;76.90;;;;;;4991279;28;20041;-88
2022/10/27 11:45:53;;;;;;;3.83;1.58;;;24.80;76.80;;;;;;4995365;28;20045;-89
2022/10/27 11:48:27;;;;;;;2.90;1.67;;;24.80;76.30;;;;;;4994135;28;20034;-88
2022/10/27 11:51:17;;;;;;;2.05;1.17;;;24.90;76.40;;;;;;4992831;28;20033;-90
2022/10/27 11:53:43;;;;;;;4.75;1.40;;;24.90;76.10;;;;;;4989619;28;20041;-88
2022/10/27 11:56:33;;;;;;;3.83;1.50;;;25.00;76.10;;;;;;4992345;28;20026;-87
2022/10/27 11:59:32;;;;;;;6.63;2.00;;;25.10;75.60;;;;;;4980868;28;20052;-88
2022/10/27 12:02:06;;;;;;;5.05;1.80;;;25.10;75.40;;;;;;4988893;28;20432;-90
2022/10/27 12:04:59;;;;;;;3.85;1.10;;;25.00;75.20;;;;;;5005077;28;20029;-86
2022/10/27 12:07:37;;;;;;;6.78;2.38;;;24.90;75.10;;;;;;4980392;28;20031;-87
2022/10/27 12:10:31;;;;;;;3.08;1.40;;;24.90;75.10;;;;;;4991532;28;20469;-87
2022/10/27 12:13:20;;;;;;;4.85;1.50;;;24.80;74.80;;;;;;5011832;28;20503;-87
2022/10/27 12:15:58;;;;;;;2.58;1.08;;;24.80;74.90;;;;;;4983736;28;20493;-86
2022/10/27 12:19:17;;;;;;;2.90;1.25;;;24.80;74.80;;;;;;4981172;28;20026;-87
2022/10/27 12:22:07;;;;;;;4.05;1.08;;;24.70;74.40;;;;;;4993783;28;20050;-86
2022/10/27 12:24:53;;;;;;;4.10;1.50;;;24.60;74.50;;;;;;4989528;28;20108;-88
2022/10/27 12:27:24;;;;;;;4.43;1.45;;;24.60;74.40;;;;;;4985879;28;20620;-87
2022/10/27 12:29:57;;;;;;;2.92;1.05;;;24.60;74.40;;;;;;4991676;28;20026;-85
2022/10/27 12:32:30;;;;;;;3.35;1.30;;;24.60;74.30;;;;;;4988001;28;20053;-83
2022/10/27 12:35:28;;;;;;;2.78;0.82;;;24.50;74.10;;;;;;4989974;28;20141;-82
2022/10/27 12:38:01;;;;;;;4.57;1.48;;;24.50;74.10;;;;;;4987564;28;20046;-82
2022/10/27 12:40:48;;;;;;;2.87;1.27;;;24.60;74.30;;;;;;4997437;28;20048;-85
2022/10/27 12:43:28;;;;;;;4.55;1.38;;;24.60;74.10;;;;;;5012202;28;20271;-87
2022/10/27 12:46:27;;;;;;;3.25;1.10;;;24.60;73.90;;;;;;4979141;28;20030;-83
2022/10/27 12:49:08;;;;;;;4.53;1.70;;;24.60;73.90;;;;;;4982832;28;20131;-84
2022/10/27 12:51:52;;;;;;;3.55;1.30;;;24.60;74.00;;;;;;5005792;28;20114;-85
2022/10/27 12:54:42;;;;;;;3.85;1.33;;;24.50;73.70;;;;;;5008121;28;20037;-84
2022/10/27 12:57:36;;;;;;;3.78;1.42;;;24.40;73.60;;;;;;4987628;28;20108;-88
2022/10/27 13:00:19;;;;;;;2.67;1.08;;;24.40;73.80;;;;;;4990470;28;20286;-87
2022/10/27 13:03:03;;;;;;;3.97;1.70;;;24.40;73.70;;;;;;4989757;28;20068;-85
2022/10/27 13:06:07;;;;;;;3.50;1.50;;;24.40;73.70;;;;;;4977797;28;20057;-82
2022/10/27 13:08:33;;;;;;;;;;;24.40;73.60;;;;;;4989281;28;20073;-84
2022/10/27 13:11:14;;;;;;;2.22;1.15;;;24.40;73.90;;;;;;4990854;28;19910;-84